sensor_id;sensor_type;location;lat;lon;timestamp;pressure;altitude;pressure_sealevel;temperature;humidity
21504;BME280;10913;51.992;9.228;2022-07-18T00:00:03;101261.22;;;16.37;75.18
21504;BME280;10913;51.992;9.228;2022-07-18T00:02:28;101259.47;;;16.36;75.49
21504;BME280;10913;51.992;9.228;2022-07-18T00:04:54;101262.16;;;16.34;75.64
21504;BME280;10913;51.992;9.228;2022-07-18T00:07:19;101263.09;;;16.32;75.79
21504;BME280;10913;51.992;9.228;2022-07-18T00:09:45;101256.03;;;16.26;75.82
21504;BME280;10913;51.992;9.228;2022-07-18T00:12:11;101256.97;;;16.22;76.01
21504;BME280;10913;51.992;9.228;2022-07-18T00:14:37;101273.03;;;16.19;76.28
21504;BME280;10913;51.992;9.228;2022-07-18T00:17:03;101268.66;;;16.16;76.18
21504;BME280;10913;51.992;9.228;2022-07-18T00:19:29;101268.69;;;16.13;76.39
21504;BME280;10913;51.992;9.228;2022-07-18T00:21:55;101278.47;;;16.13;76.35
21504;BME280;10913;51.992;9.228;2022-07-18T00:24:20;101268.72;;;16.10;75.93
21504;BME280;10913;51.992;9.228;2022-07-18T00:26:46;101274.06;;;16.09;76.34
21504;BME280;10913;51.992;9.228;2022-07-18T00:29:11;101272.34;;;16.03;76.88
21504;BME280;10913;51.992;9.228;2022-07-18T00:31:37;101272.41;;;16.00;76.72
21504;BME280;10913;51.992;9.228;2022-07-18T00:34:03;101275.06;;;15.99;76.94
21504;BME280;10913;51.992;9.228;2022-07-18T00:36:29;101275.16;;;15.94;76.92
21504;BME280;10913;51.992;9.228;2022-07-18T00:38:56;101280.50;;;15.93;77.15
21504;BME280;10913;51.992;9.228;2022-07-18T00:41:21;101274.38;;;15.86;77.21
21504;BME280;10913;51.992;9.228;2022-07-18T00:43:47;101281.50;;;15.84;77.20
21504;BME280;10913;51.992;9.228;2022-07-18T00:46:13;101277.09;;;15.81;77.32
21504;BME280;10913;51.992;9.228;2022-07-18T00:48:40;101269.16;;;15.77;77.73
21504;BME280;10913;51.992;9.228;2022-07-18T00:51:06;101274.56;;;15.71;77.88
21504;BME280;10913;51.992;9.228;2022-07-18T00:53:32;101259.47;;;15.70;78.17
21504;BME280;10913;51.992;9.228;2022-07-18T00:55:58;101265.72;;;15.69;77.96
21504;BME280;10913;51.992;9.228;2022-07-18T00:58:24;101265.72;;;15.67;77.58
21504;BME280;10913;51.992;9.228;2022-07-18T01:00:50;101258.66;;;15.65;77.34
21504;BME280;10913;51.992;9.228;2022-07-18T01:03:33;101256.00;;;15.62;77.59
21504;BME280;10913;51.992;9.228;2022-07-18T01:05:59;101256.09;;;15.57;78.02
21504;BME280;10913;51.992;9.228;2022-07-18T01:08:25;101248.13;;;15.51;78.29
21504;BME280;10913;51.992;9.228;2022-07-18T01:10:50;101252.63;;;15.46;78.53
21504;BME280;10913;51.992;9.228;2022-07-18T01:13:17;101249.09;;;15.44;78.84
21504;BME280;10913;51.992;9.228;2022-07-18T01:15:43;101242.88;;;15.43;79.11
21504;BME280;10913;51.992;9.228;2022-07-18T01:18:08;101240.25;;;15.39;79.52
21504;BME280;10913;51.992;9.228;2022-07-18T01:20:34;101237.66;;;15.36;79.48
21504;BME280;10913;51.992;9.228;2022-07-18T01:23:00;101240.34;;;15.33;79.39
21504;BME280;10913;51.992;9.228;2022-07-18T01:25:25;101237.72;;;15.31;79.34
21504;BME280;10913;51.992;9.228;2022-07-18T01:27:51;101235.94;;;15.30;80.06
21504;BME280;10913;51.992;9.228;2022-07-18T01:30:17;101227.09;;;15.28;79.76
21504;BME280;10913;51.992;9.228;2022-07-18T01:32:43;101233.28;;;15.29;79.37
21504;BME280;10913;51.992;9.228;2022-07-18T01:35:09;101227.97;;;15.29;79.19
21504;BME280;10913;51.992;9.228;2022-07-18T01:37:34;101231.50;;;15.29;78.92
21504;BME280;10913;51.992;9.228;2022-07-18T01:40:00;101229.75;;;15.27;79.02
21504;BME280;10913;51.992;9.228;2022-07-18T01:42:25;101232.47;;;15.22;79.46
21504;BME280;10913;51.992;9.228;2022-07-18T01:44:51;101236.91;;;15.20;79.77
21504;BME280;10913;51.992;9.228;2022-07-18T01:47:16;101236.09;;;15.18;79.95
21504;BME280;10913;51.992;9.228;2022-07-18T01:49:42;101237.91;;;15.13;80.02
21504;BME280;10913;51.992;9.228;2022-07-18T01:52:09;101243.25;;;15.10;80.14
21504;BME280;10913;51.992;9.228;2022-07-18T01:54:36;101248.59;;;15.07;80.13
21504;BME280;10913;51.992;9.228;2022-07-18T01:57:03;101238.88;;;15.04;80.46
21504;BME280;10913;51.992;9.228;2022-07-18T01:59:29;101239.78;;;15.02;80.46
21504;BME280;10913;51.992;9.228;2022-07-18T02:01:54;101246.88;;;15.00;80.43
21504;BME280;10913;51.992;9.228;2022-07-18T02:04:20;101239.84;;;14.96;80.66
21504;BME280;10913;51.992;9.228;2022-07-18T02:06:45;101237.22;;;14.91;80.85
21504;BME280;10913;51.992;9.228;2022-07-18T02:09:11;101239.94;;;14.83;81.27
21504;BME280;10913;51.992;9.228;2022-07-18T02:11:37;101223.19;;;14.77;81.55
21504;BME280;10913;51.992;9.228;2022-07-18T02:14:05;101235.63;;;14.73;81.58
21504;BME280;10913;51.992;9.228;2022-07-18T02:16:31;101236.53;;;14.71;81.77
21504;BME280;10913;51.992;9.228;2022-07-18T02:18:57;101225.03;;;14.67;81.46
21504;BME280;10913;51.992;9.228;2022-07-18T02:21:22;101233.00;;;14.67;81.52
21504;BME280;10913;51.992;9.228;2022-07-18T02:23:48;101227.72;;;14.64;81.34
21504;BME280;10913;51.992;9.228;2022-07-18T02:26:16;101227.72;;;14.61;81.56
21504;BME280;10913;51.992;9.228;2022-07-18T02:28:41;101228.63;;;14.60;81.58
21504;BME280;10913;51.992;9.228;2022-07-18T02:31:07;101218.88;;;14.59;81.75
21504;BME280;10913;51.992;9.228;2022-07-18T02:33:32;101217.16;;;14.55;82.28
21504;BME280;10913;51.992;9.228;2022-07-18T02:35:58;101218.94;;;14.53;82.53
21504;BME280;10913;51.992;9.228;2022-07-18T02:38:23;101223.38;;;14.53;82.12
21504;BME280;10913;51.992;9.228;2022-07-18T02:40:49;101218.06;;;14.53;82.05
21504;BME280;10913;51.992;9.228;2022-07-18T02:43:14;101215.41;;;14.51;81.90
21504;BME280;10913;51.992;9.228;2022-07-18T02:45:40;101213.66;;;14.50;81.98
21504;BME280;10913;51.992;9.228;2022-07-18T02:48:05;101213.66;;;14.50;82.14
21504;BME280;10913;51.992;9.228;2022-07-18T02:50:31;101210.13;;;14.48;81.77
21504;BME280;10913;51.992;9.228;2022-07-18T02:52:56;101214.56;;;14.46;81.93
21504;BME280;10913;51.992;9.228;2022-07-18T02:55:22;101218.13;;;14.42;82.09
21504;BME280;10913;51.992;9.228;2022-07-18T02:57:49;101219.06;;;14.35;82.51
21504;BME280;10913;51.992;9.228;2022-07-18T03:00:15;101222.63;;;14.31;82.71
21504;BME280;10913;51.992;9.228;2022-07-18T03:02:41;101227.09;;;14.27;83.12
21504;BME280;10913;51.992;9.228;2022-07-18T03:05:07;101213.81;;;14.24;83.12
21504;BME280;10913;51.992;9.228;2022-07-18T03:07:33;101225.34;;;14.23;83.75
21504;BME280;10913;51.992;9.228;2022-07-18T03:09:58;101223.56;;;14.21;83.51
21504;BME280;10913;51.992;9.228;2022-07-18T03:12:24;101220.91;;;14.21;83.17
21504;BME280;10913;51.992;9.228;2022-07-18T03:14:50;101213.81;;;14.20;83.10
21504;BME280;10913;51.992;9.228;2022-07-18T03:17:15;101221.84;;;14.15;83.40
21504;BME280;10913;51.992;9.228;2022-07-18T03:19:41;101209.47;;;14.12;83.53
21504;BME280;10913;51.992;9.228;2022-07-18T03:22:06;101205.91;;;14.13;83.76
21504;BME280;10913;51.992;9.228;2022-07-18T03:24:32;101213.91;;;14.13;83.91
21504;BME280;10913;51.992;9.228;2022-07-18T03:26:58;101215.66;;;14.14;83.77
21504;BME280;10913;51.992;9.228;2022-07-18T03:29:23;101214.78;;;14.14;83.33
21504;BME280;10913;51.992;9.228;2022-07-18T03:31:49;101213.91;;;14.13;83.50
21504;BME280;10913;51.992;9.228;2022-07-18T03:34:14;101204.16;;;14.11;83.61
21504;BME280;10913;51.992;9.228;2022-07-18T03:36:40;101205.06;;;14.08;83.70
21504;BME280;10913;51.992;9.228;2022-07-18T03:39:06;101203.31;;;14.06;84.28
21504;BME280;10913;51.992;9.228;2022-07-18T03:41:32;101198.91;;;14.02;84.37
21504;BME280;10913;51.992;9.228;2022-07-18T03:43:57;101201.59;;;13.97;84.17
21504;BME280;10913;51.992;9.228;2022-07-18T03:46:23;101202.50;;;13.95;84.49
21504;BME280;10913;51.992;9.228;2022-07-18T03:48:48;101203.38;;;13.95;84.35
21504;BME280;10913;51.992;9.228;2022-07-18T03:51:14;101197.19;;;13.98;84.44
21504;BME280;10913;51.992;9.228;2022-07-18T03:53:39;101205.09;;;13.99;84.25
21504;BME280;10913;51.992;9.228;2022-07-18T03:56:05;101204.22;;;14.00;84.17
21504;BME280;10913;51.992;9.228;2022-07-18T03:58:30;101208.63;;;14.01;84.28
21504;BME280;10913;51.992;9.228;2022-07-18T04:00:56;101196.22;;;14.02;84.23
21504;BME280;10913;51.992;9.228;2022-07-18T04:03:21;101194.47;;;14.02;85.22
21504;BME280;10913;51.992;9.228;2022-07-18T04:05:47;101184.72;;;14.00;84.84
21504;BME280;10913;51.992;9.228;2022-07-18T04:08:12;101193.59;;;13.99;85.09
21504;BME280;10913;51.992;9.228;2022-07-18T04:10:38;101186.53;;;13.98;85.16
21504;BME280;10913;51.992;9.228;2022-07-18T04:13:06;101190.09;;;13.97;85.32
21504;BME280;10913;51.992;9.228;2022-07-18T04:15:32;101190.09;;;13.98;84.88
21504;BME280;10913;51.992;9.228;2022-07-18T04:17:58;101195.34;;;14.01;84.72
21504;BME280;10913;51.992;9.228;2022-07-18T04:20:24;101203.31;;;14.01;84.73
21504;BME280;10913;51.992;9.228;2022-07-18T04:22:53;101198.91;;;14.02;84.89
21504;BME280;10913;51.992;9.228;2022-07-18T04:25:21;101195.34;;;14.04;84.81
21504;BME280;10913;51.992;9.228;2022-07-18T04:27:47;101201.53;;;14.06;85.16
21504;BME280;10913;51.992;9.228;2022-07-18T04:30:14;101191.78;;;14.08;85.01
21504;BME280;10913;51.992;9.228;2022-07-18T04:32:41;101190.88;;;14.09;85.00
21504;BME280;10913;51.992;9.228;2022-07-18T04:35:08;101178.50;;;14.08;85.38
21504;BME280;10913;51.992;9.228;2022-07-18T04:37:34;101170.53;;;14.04;86.55
21504;BME280;10913;51.992;9.228;2022-07-18T04:40:01;101175.06;;;13.94;86.61
21504;BME280;10913;51.992;9.228;2022-07-18T04:42:27;101176.84;;;13.92;86.75
21504;BME280;10913;51.992;9.228;2022-07-18T04:44:53;101180.38;;;13.94;86.99
21504;BME280;10913;51.992;9.228;2022-07-18T04:47:18;101180.34;;;13.97;86.54
21504;BME280;10913;51.992;9.228;2022-07-18T04:49:44;101186.47;;;14.04;86.38
21504;BME280;10913;51.992;9.228;2022-07-18T04:52:09;101187.34;;;14.10;86.51
21504;BME280;10913;51.992;9.228;2022-07-18T04:54:35;101183.78;;;14.14;86.47
21504;BME280;10913;51.992;9.228;2022-07-18T04:57:00;101179.28;;;14.20;86.69
21504;BME280;10913;51.992;9.228;2022-07-18T04:59:25;101178.34;;;14.25;86.58
21504;BME280;10913;51.992;9.228;2022-07-18T05:01:51;101166.81;;;14.31;86.73
21504;BME280;10913;51.992;9.228;2022-07-18T05:04:16;101170.31;;;14.37;86.66
21504;BME280;10913;51.992;9.228;2022-07-18T05:06:42;101169.38;;;14.44;86.16
21504;BME280;10913;51.992;9.228;2022-07-18T05:09:07;101168.47;;;14.48;86.97
21504;BME280;10913;51.992;9.228;2022-07-18T05:11:33;101167.56;;;14.48;86.53
21504;BME280;10913;51.992;9.228;2022-07-18T05:13:58;101165.78;;;14.52;86.25
21504;BME280;10913;51.992;9.228;2022-07-18T05:16:23;101157.72;;;14.59;86.21
21504;BME280;10913;51.992;9.228;2022-07-18T05:18:49;101164.72;;;14.71;85.72
21504;BME280;10913;51.992;9.228;2022-07-18T05:21:14;101163.69;;;14.82;85.45
21504;BME280;10913;51.992;9.228;2022-07-18T05:23:39;101168.88;;;14.98;85.03
21504;BME280;10913;51.992;9.228;2022-07-18T05:26:05;101170.47;;;15.14;84.67
21504;BME280;10913;51.992;9.228;2022-07-18T05:28:31;101164.94;;;15.29;83.90
21504;BME280;10913;51.992;9.228;2022-07-18T05:30:56;101165.63;;;15.45;83.11
21504;BME280;10913;51.992;9.228;2022-07-18T05:33:21;101164.66;;;15.57;83.06
21504;BME280;10913;51.992;9.228;2022-07-18T05:35:47;101165.41;;;15.65;82.62
21504;BME280;10913;51.992;9.228;2022-07-18T05:38:12;101162.66;;;15.71;82.80
21504;BME280;10913;51.992;9.228;2022-07-18T05:40:38;101164.38;;;15.75;82.20
21504;BME280;10913;51.992;9.228;2022-07-18T05:43:03;101175.84;;;15.80;82.37
21504;BME280;10913;51.992;9.228;2022-07-18T05:45:29;101169.59;;;15.81;82.97
21504;BME280;10913;51.992;9.228;2022-07-18T05:47:55;101179.38;;;15.80;82.99
21504;BME280;10913;51.992;9.228;2022-07-18T05:50:22;101185.59;;;15.81;82.54
21504;BME280;10913;51.992;9.228;2022-07-18T05:52:48;101169.56;;;15.84;82.25
21504;BME280;10913;51.992;9.228;2022-07-18T05:55:13;101169.47;;;15.93;82.12
21504;BME280;10913;51.992;9.228;2022-07-18T05:57:39;101167.53;;;16.01;81.75
21504;BME280;10913;51.992;9.228;2022-07-18T06:00:06;101168.31;;;16.09;82.33
21504;BME280;10913;51.992;9.228;2022-07-18T06:02:35;101167.31;;;16.16;81.83
21504;BME280;10913;51.992;9.228;2022-07-18T06:05:01;101170.75;;;16.23;81.59
21504;BME280;10913;51.992;9.228;2022-07-18T06:07:27;101162.72;;;16.26;82.21
21504;BME280;10913;51.992;9.228;2022-07-18T06:09:52;101163.53;;;16.30;82.26
21504;BME280;10913;51.992;9.228;2022-07-18T06:12:18;101165.22;;;16.37;82.18
21504;BME280;10913;51.992;9.228;2022-07-18T06:14:43;101165.03;;;16.46;81.94
21504;BME280;10913;51.992;9.228;2022-07-18T06:17:09;101159.56;;;16.55;82.16
21504;BME280;10913;51.992;9.228;2022-07-18T06:19:34;101154.09;;;16.64;81.97
21504;BME280;10913;51.992;9.228;2022-07-18T06:22:00;101148.59;;;16.73;81.74
21504;BME280;10913;51.992;9.228;2022-07-18T06:24:25;101145.72;;;16.84;81.23
21504;BME280;10913;51.992;9.228;2022-07-18T06:26:51;101144.63;;;16.96;81.67
21504;BME280;10913;51.992;9.228;2022-07-18T06:29:16;101137.25;;;17.07;80.64
21504;BME280;10913;51.992;9.228;2022-07-18T06:31:42;101129.94;;;17.18;80.81
21504;BME280;10913;51.992;9.228;2022-07-18T06:34:08;101129.63;;;17.32;80.58
21504;BME280;10913;51.992;9.228;2022-07-18T06:36:33;101132.94;;;17.43;80.29
21504;BME280;10913;51.992;9.228;2022-07-18T06:38:58;101132.66;;;17.56;79.37
21504;BME280;10913;51.992;9.228;2022-07-18T06:41:24;101133.16;;;17.75;79.86
21504;BME280;10913;51.992;9.228;2022-07-18T06:43:49;101122.91;;;17.94;79.04
21504;BME280;10913;51.992;9.228;2022-07-18T06:46:15;101118.94;;;18.10;78.15
21504;BME280;10913;51.992;9.228;2022-07-18T06:48:40;101123.91;;;18.25;77.81
21504;BME280;10913;51.992;9.228;2022-07-18T06:51:06;101117.22;;;18.43;77.38
21504;BME280;10913;51.992;9.228;2022-07-18T06:53:33;101119.44;;;18.62;78.44
21504;BME280;10913;51.992;9.228;2022-07-18T06:55:59;101110.03;;;18.79;77.67
21504;BME280;10913;51.992;9.228;2022-07-18T06:58:28;101120.25;;;18.98;77.43
21504;BME280;10913;51.992;9.228;2022-07-18T07:00:56;101110.84;;;19.14;76.79
21504;BME280;10913;51.992;9.228;2022-07-18T07:03:21;101121.13;;;19.29;76.52
21504;BME280;10913;51.992;9.228;2022-07-18T07:05:46;101112.69;;;19.41;75.91
21504;BME280;10913;51.992;9.228;2022-07-18T07:08:12;101107.94;;;19.52;74.55
21504;BME280;10913;51.992;9.228;2022-07-18T07:10:38;101102.16;;;19.66;73.35
21504;BME280;10913;51.992;9.228;2022-07-18T07:13:04;101088.38;;;19.78;73.13
21504;BME280;10913;51.992;9.228;2022-07-18T07:15:29;101093.22;;;19.93;71.24
21504;BME280;10913;51.992;9.228;2022-07-18T07:17:54;101099.06;;;20.06;70.86
21504;BME280;10913;51.992;9.228;2022-07-18T07:20:20;101105.75;;;20.19;69.99
21504;BME280;10913;51.992;9.228;2022-07-18T07:22:47;101095.47;;;20.34;67.22
21504;BME280;10913;51.992;9.228;2022-07-18T07:25:14;101090.56;;;20.46;66.89
21504;BME280;10913;51.992;9.228;2022-07-18T07:27:40;101090.94;;;20.60;68.19
21504;BME280;10913;51.992;9.228;2022-07-18T07:30:06;101086.81;;;20.77;66.41
21504;BME280;10913;51.992;9.228;2022-07-18T07:32:35;101094.38;;;20.90;66.11
21504;BME280;10913;51.992;9.228;2022-07-18T07:35:02;101096.63;;;21.01;66.91
21504;BME280;10913;51.992;9.228;2022-07-18T07:37:29;101090.72;;;21.16;67.00
21504;BME280;10913;51.992;9.228;2022-07-18T07:39:55;101096.53;;;21.29;65.91
21504;BME280;10913;51.992;9.228;2022-07-18T07:42:21;101096.81;;;21.45;66.80
21504;BME280;10913;51.992;9.228;2022-07-18T07:44:46;101098.94;;;21.58;66.58
21504;BME280;10913;51.992;9.228;2022-07-18T07:47:12;101091.97;;;21.76;64.88
21504;BME280;10913;51.992;9.228;2022-07-18T07:49:37;101089.34;;;21.96;64.55
21504;BME280;10913;51.992;9.228;2022-07-18T07:52:03;101073.59;;;22.09;61.47
21504;BME280;10913;51.992;9.228;2022-07-18T07:54:28;101080.09;;;22.25;61.91
21504;BME280;10913;51.992;9.228;2022-07-18T07:56:53;101084.56;;;22.47;62.45
21504;BME280;10913;51.992;9.228;2022-07-18T07:59:19;101071.81;;;22.71;60.71
21504;BME280;10913;51.992;9.228;2022-07-18T08:01:44;101073.41;;;22.96;61.10
21504;BME280;10913;51.992;9.228;2022-07-18T08:04:10;101066.13;;;23.17;59.52
21504;BME280;10913;51.992;9.228;2022-07-18T08:06:35;101070.66;;;23.35;59.42
21504;BME280;10913;51.992;9.228;2022-07-18T08:09:00;101059.75;;;23.57;59.06
21504;BME280;10913;51.992;9.228;2022-07-18T08:11:26;101071.00;;;23.84;59.16
21504;BME280;10913;51.992;9.228;2022-07-18T08:13:51;101057.97;;;24.11;57.54
21504;BME280;10913;51.992;9.228;2022-07-18T08:16:19;101057.94;;;24.30;57.21
21504;BME280;10913;51.992;9.228;2022-07-18T08:18:44;101058.66;;;24.51;56.40
21504;BME280;10913;51.992;9.228;2022-07-18T08:21:09;101059.59;;;24.67;55.79
21504;BME280;10913;51.992;9.228;2022-07-18T08:23:35;101057.72;;;24.85;55.10
21504;BME280;10913;51.992;9.228;2022-07-18T08:26:01;101062.31;;;25.00;54.83
21504;BME280;10913;51.992;9.228;2022-07-18T08:28:27;101050.84;;;25.12;55.09
21504;BME280;10913;51.992;9.228;2022-07-18T08:30:52;101052.16;;;25.21;55.04
21504;BME280;10913;51.992;9.228;2022-07-18T08:33:18;101048.44;;;25.39;55.41
21504;BME280;10913;51.992;9.228;2022-07-18T08:35:43;101041.81;;;25.60;55.34
21504;BME280;10913;51.992;9.228;2022-07-18T08:38:09;101036.75;;;25.86;52.78
21504;BME280;10913;51.992;9.228;2022-07-18T08:40:36;101034.88;;;26.02;52.18
21504;BME280;10913;51.992;9.228;2022-07-18T08:43:02;101034.97;;;26.16;53.02
21504;BME280;10913;51.992;9.228;2022-07-18T08:45:28;101028.06;;;26.40;52.91
21504;BME280;10913;51.992;9.228;2022-07-18T08:47:54;101020.59;;;26.74;51.15
21504;BME280;10913;51.992;9.228;2022-07-18T08:50:19;101017.69;;;26.91;50.53
21504;BME280;10913;51.992;9.228;2022-07-18T08:52:45;101019.16;;;27.11;50.38
21504;BME280;10913;51.992;9.228;2022-07-18T08:55:11;101019.13;;;27.25;49.57
21504;BME280;10913;51.992;9.228;2022-07-18T08:57:37;101023.28;;;27.45;49.96
21504;BME280;10913;51.992;9.228;2022-07-18T09:00:07;101022.34;;;27.32;47.96
21504;BME280;10913;51.992;9.228;2022-07-18T09:02:34;101018.56;;;27.34;48.15
21504;BME280;10913;51.992;9.228;2022-07-18T09:05:04;101010.47;;;27.47;48.51
21504;BME280;10913;51.992;9.228;2022-07-18T09:07:33;101021.88;;;27.66;47.65
21504;BME280;10913;51.992;9.228;2022-07-18T09:10:04;101021.94;;;27.79;48.32
21504;BME280;10913;51.992;9.228;2022-07-18T09:12:31;101015.13;;;27.86;47.66
21504;BME280;10913;51.992;9.228;2022-07-18T09:14:58;101012.88;;;27.93;48.13
21504;BME280;10913;51.992;9.228;2022-07-18T09:17:28;101014.28;;;27.98;47.79
21504;BME280;10913;51.992;9.228;2022-07-18T09:20:07;101009.41;;;28.03;46.89
21504;BME280;10913;51.992;9.228;2022-07-18T09:22:35;101007.72;;;28.15;47.93
21504;BME280;10913;51.992;9.228;2022-07-18T09:25:19;101008.22;;;28.34;47.58
21504;BME280;10913;51.992;9.228;2022-07-18T09:27:52;101010.63;;;28.52;47.17
21504;BME280;10913;51.992;9.228;2022-07-18T09:30:29;101003.91;;;28.70;47.24
21504;BME280;10913;51.992;9.228;2022-07-18T09:35:58;101002.41;;;28.91;44.54
21504;BME280;10913;51.992;9.228;2022-07-18T09:38:29;101006.75;;;28.94;44.23
21504;BME280;10913;51.992;9.228;2022-07-18T09:40:55;101005.41;;;28.99;43.88
21504;BME280;10913;51.992;9.228;2022-07-18T09:43:24;101013.59;;;29.12;44.17
21504;BME280;10913;51.992;9.228;2022-07-18T09:45:52;101011.25;;;29.31;44.42
21504;BME280;10913;51.992;9.228;2022-07-18T09:48:24;101003.16;;;29.55;44.96
21504;BME280;10913;51.992;9.228;2022-07-18T09:50:50;101012.03;;;29.70;42.76
21504;BME280;10913;51.992;9.228;2022-07-18T09:53:24;101004.72;;;29.70;43.61
21504;BME280;10913;51.992;9.228;2022-07-18T09:55:54;100996.31;;;29.73;43.77
21504;BME280;10913;51.992;9.228;2022-07-18T09:58:27;100999.81;;;29.75;42.88
21504;BME280;10913;51.992;9.228;2022-07-18T10:00:55;100989.78;;;29.76;43.68
21504;BME280;10913;51.992;9.228;2022-07-18T10:03:21;100996.13;;;29.88;43.70
21504;BME280;10913;51.992;9.228;2022-07-18T10:05:48;100992.19;;;29.92;43.53
21504;BME280;10913;51.992;9.228;2022-07-18T10:08:20;101000.72;;;29.87;42.70
21504;BME280;10913;51.992;9.228;2022-07-18T10:10:50;100985.22;;;29.88;43.53
21504;BME280;10913;51.992;9.228;2022-07-18T10:13:18;100993.34;;;30.00;43.44
21504;BME280;10913;51.992;9.228;2022-07-18T10:15:44;100999.78;;;29.99;41.82
21504;BME280;10913;51.992;9.228;2022-07-18T10:18:12;100988.94;;;30.10;43.20
21504;BME280;10913;51.992;9.228;2022-07-18T10:20:42;100994.84;;;30.28;43.07
21504;BME280;10913;51.992;9.228;2022-07-18T10:23:26;100987.91;;;30.35;41.83
21504;BME280;10913;51.992;9.228;2022-07-18T10:26:13;100988.91;;;30.45;41.99
21504;BME280;10913;51.992;9.228;2022-07-18T10:31:38;100987.88;;;30.70;40.65
21504;BME280;10913;51.992;9.228;2022-07-18T10:36:29;100986.00;;;30.82;41.58
21504;BME280;10913;51.992;9.228;2022-07-18T10:39:12;100974.09;;;31.05;43.05
21504;BME280;10913;51.992;9.228;2022-07-18T10:57:26;100968.47;;;31.51;39.92
21504;BME280;10913;51.992;9.228;2022-07-18T11:03:10;100963.81;;;32.06;41.02
21504;BME280;10913;51.992;9.228;2022-07-18T11:05:42;100967.06;;;32.32;40.77
21504;BME280;10913;51.992;9.228;2022-07-18T11:18:22;100946.63;;;32.15;40.00
21504;BME280;10913;51.992;9.228;2022-07-18T11:20:48;100936.72;;;32.03;39.77
21504;BME280;10913;51.992;9.228;2022-07-18T11:23:22;100934.25;;;32.00;40.02
21504;BME280;10913;51.992;9.228;2022-07-18T11:25:50;100934.78;;;31.73;39.59
21504;BME280;10913;51.992;9.228;2022-07-18T11:28:16;100929.50;;;31.81;40.78
21504;BME280;10913;51.992;9.228;2022-07-18T11:30:42;100920.00;;;31.97;39.97
21504;BME280;10913;51.992;9.228;2022-07-18T11:33:23;100929.25;;;32.05;39.65
21504;BME280;10913;51.992;9.228;2022-07-18T11:35:49;100920.13;;;32.16;40.29
21504;BME280;10913;51.992;9.228;2022-07-18T11:38:15;100922.22;;;32.24;40.00
21504;BME280;10913;51.992;9.228;2022-07-18T11:40:48;100918.28;;;32.37;39.80
21504;BME280;10913;51.992;9.228;2022-07-18T11:43:24;100908.66;;;32.43;40.86
21504;BME280;10913;51.992;9.228;2022-07-18T11:46:07;100894.75;;;32.56;40.20
21504;BME280;10913;51.992;9.228;2022-07-18T11:48:34;100899.03;;;32.48;40.16
21504;BME280;10913;51.992;9.228;2022-07-18T11:51:00;100898.66;;;32.32;40.60
21504;BME280;10913;51.992;9.228;2022-07-18T11:53:26;100898.34;;;32.26;40.14
21504;BME280;10913;51.992;9.228;2022-07-18T11:55:53;100886.88;;;32.32;40.17
21504;BME280;10913;51.992;9.228;2022-07-18T11:58:18;100885.88;;;32.33;40.13
21504;BME280;10913;51.992;9.228;2022-07-18T12:00:45;100888.72;;;32.31;40.61
21504;BME280;10913;51.992;9.228;2022-07-18T12:03:15;100885.47;;;32.37;39.37
21504;BME280;10913;51.992;9.228;2022-07-18T12:08:31;100888.44;;;32.55;40.98
21504;BME280;10913;51.992;9.228;2022-07-18T12:11:04;100883.94;;;32.84;40.50
21504;BME280;10913;51.992;9.228;2022-07-18T12:13:46;100884.31;;;33.10;39.51
21504;BME280;10913;51.992;9.228;2022-07-18T12:16:26;100878.09;;;33.18;39.10
21504;BME280;10913;51.992;9.228;2022-07-18T12:18:54;100879.16;;;33.27;39.39
21504;BME280;10913;51.992;9.228;2022-07-18T12:21:19;100874.81;;;33.14;39.01
21504;BME280;10913;51.992;9.228;2022-07-18T12:23:45;100865.09;;;33.01;38.54
21504;BME280;10913;51.992;9.228;2022-07-18T12:26:30;100865.22;;;32.90;39.42
21504;BME280;10913;51.992;9.228;2022-07-18T12:29:04;100867.25;;;32.88;39.14
21504;BME280;10913;51.992;9.228;2022-07-18T12:31:38;100860.34;;;32.93;39.15
21504;BME280;10913;51.992;9.228;2022-07-18T12:34:08;100855.47;;;33.06;40.03
21504;BME280;10913;51.992;9.228;2022-07-18T12:36:34;100854.03;;;33.12;38.88
21504;BME280;10913;51.992;9.228;2022-07-18T12:39:00;100846.25;;;33.07;38.77
21504;BME280;10913;51.992;9.228;2022-07-18T12:41:29;100844.09;;;33.11;39.38
21504;BME280;10913;51.992;9.228;2022-07-18T12:43:54;100844.56;;;33.26;39.76
21504;BME280;10913;51.992;9.228;2022-07-18T12:46:19;100841.72;;;33.37;40.44
21504;BME280;10913;51.992;9.228;2022-07-18T12:48:45;100847.44;;;33.63;40.43
21504;BME280;10913;51.992;9.228;2022-07-18T12:51:10;100844.41;;;33.85;40.17
21504;BME280;10913;51.992;9.228;2022-07-18T12:53:39;100839.50;;;33.88;37.81
21504;BME280;10913;51.992;9.228;2022-07-18T12:56:06;100835.91;;;33.78;38.20
21504;BME280;10913;51.992;9.228;2022-07-18T12:58:31;100829.56;;;33.68;38.25
21504;BME280;10913;51.992;9.228;2022-07-18T13:00:57;100837.34;;;33.63;38.55
21504;BME280;10913;51.992;9.228;2022-07-18T13:03:23;100832.59;;;33.56;38.09
21504;BME280;10913;51.992;9.228;2022-07-18T13:05:48;100835.91;;;33.59;39.08
21504;BME280;10913;51.992;9.228;2022-07-18T13:08:14;100830.44;;;33.49;38.49
21504;BME280;10913;51.992;9.228;2022-07-18T13:10:40;100829.00;;;33.55;37.94
21504;BME280;10913;51.992;9.228;2022-07-18T13:13:07;100831.03;;;33.53;38.14
21504;BME280;10913;51.992;9.228;2022-07-18T13:15:33;100823.19;;;33.58;39.21
21504;BME280;10913;51.992;9.228;2022-07-18T13:17:59;100819.03;;;33.73;39.48
21504;BME280;10913;51.992;9.228;2022-07-18T13:20:24;100816.00;;;33.86;39.51
21504;BME280;10913;51.992;9.228;2022-07-18T13:22:51;100817.00;;;33.95;38.95
21504;BME280;10913;51.992;9.228;2022-07-18T13:25:16;100812.53;;;33.94;39.35
21504;BME280;10913;51.992;9.228;2022-07-18T13:27:42;100812.09;;;33.88;39.15